Time;durP1;ratioP1;P1;durP2;ratioP2;P2;SDS_P1;SDS_P2;PMS_P1;PMS_P2;Temp;Humidity;BMP_temperature;BMP_pressure;BME280_temperature;BME280_humidity;BME280_pressure;Samples;Min_cycle;Max_cycle;Signal;HPM_P1;HPM_P2
2024/01/18 00:00:34;;;;;;;12.30;11.70;;;8.20;99.90;;;;;;5047389;28;20255;-79
2024/01/18 00:03:02;;;;;;;12.13;11.53;;;8.20;99.90;;;;;;5032471;28;20195;-79
2024/01/18 00:05:29;;;;;;;12.17;11.57;;;8.20;99.90;;;;;;5036106;28;20223;-79
2024/01/18 00:07:56;;;;;;;12.30;11.70;;;8.20;99.90;;;;;;5045094;28;20242;-80
2024/01/18 00:10:26;;;;;;;12.60;11.90;;;8.20;99.90;;;;;;5037896;28;20206;-80
2024/01/18 00:12:53;;;;;;;12.47;11.87;;;8.20;99.90;;;;;;5049812;28;20700;-80
2024/01/18 00:15:21;;;;;;;12.63;12.03;;;8.20;99.90;;;;;;5036285;28;20226;-79
2024/01/18 00:17:48;;;;;;;13.17;12.47;;;8.20;99.90;;;;;;5038223;28;20245;-79
2024/01/18 00:20:16;;;;;;;12.93;12.23;;;8.20;99.90;;;;;;5044281;28;20199;-79
2024/01/18 00:22:43;;;;;;;12.80;12.10;;;8.20;99.90;;;;;;5028102;28;20645;-80
2024/01/18 00:25:10;;;;;;;12.57;11.97;;;8.20;99.90;;;;;;5044417;28;20604;-80
2024/01/18 00:27:37;;;;;;;12.60;12.00;;;8.20;99.90;;;;;;5043873;28;20298;-79
2024/01/18 00:30:04;;;;;;;12.40;11.80;;;8.20;99.90;;;;;;5041291;28;20199;-79
2024/01/18 00:32:31;;;;;;;12.17;11.57;;;8.20;99.90;;;;;;5040876;28;20253;-80
2024/01/18 00:34:58;;;;;;;12.17;11.57;;;8.30;99.90;;;;;;5041308;28;20203;-79
2024/01/18 00:37:26;;;;;;;12.00;11.40;;;8.20;99.90;;;;;;5047494;28;20605;-79
2024/01/18 00:39:52;;;;;;;11.83;11.23;;;8.20;99.90;;;;;;5044721;28;20227;-79
2024/01/18 00:42:19;;;;;;;12.07;11.47;;;8.20;99.90;;;;;;5048338;28;20203;-79
2024/01/18 00:44:46;;;;;;;12.10;11.50;;;8.20;99.90;;;;;;5043427;28;20199;-80
2024/01/18 00:47:13;;;;;;;11.77;11.17;;;8.20;99.90;;;;;;5039808;28;20223;-82
2024/01/18 00:49:40;;;;;;;11.80;11.20;;;8.20;99.90;;;;;;5041146;28;20195;-80
2024/01/18 00:52:06;;;;;;;11.60;11.00;;;8.20;99.90;;;;;;5040285;28;20207;-79
2024/01/18 00:54:35;;;;;;;11.87;11.27;;;8.20;99.90;;;;;;5048020;28;20701;-80
2024/01/18 00:57:01;;;;;;;11.60;11.00;;;8.10;99.90;;;;;;5035442;28;20650;-79
2024/01/18 00:59:28;;;;;;;11.70;11.10;;;8.00;99.90;;;;;;5049542;28;20210;-79
2024/01/18 01:01:55;;;;;;;11.60;11.00;;;8.10;99.90;;;;;;5044917;28;20216;-80
2024/01/18 01:04:22;;;;;;;11.70;11.10;;;8.00;99.90;;;;;;5049103;28;20602;-79
2024/01/18 01:06:49;;;;;;;11.87;11.27;;;8.00;99.90;;;;;;5047675;28;20615;-80
2024/01/18 01:09:15;;;;;;;11.80;11.20;;;8.00;99.90;;;;;;5039914;28;20219;-80
2024/01/18 01:11:43;;;;;;;11.70;11.10;;;8.10;99.90;;;;;;5048965;28;20203;-80
2024/01/18 01:14:10;;;;;;;11.60;11.00;;;8.20;99.90;;;;;;5040639;28;20269;-80
2024/01/18 01:16:37;;;;;;;11.73;11.10;;;8.20;99.90;;;;;;5047871;28;20256;-80
2024/01/18 01:19:04;;;;;;;11.63;11.03;;;8.20;99.90;;;;;;5041346;28;20243;-80
2024/01/18 01:21:30;;;;;;;11.30;10.70;;;8.20;99.90;;;;;;5049225;28;20229;-79
2024/01/18 01:23:57;;;;;;;11.40;10.80;;;8.30;99.90;;;;;;5042513;28;20216;-79
2024/01/18 01:26:24;;;;;;;11.33;10.73;;;8.30;99.90;;;;;;5040097;28;20211;-80
2024/01/18 01:28:52;;;;;;;11.60;11.00;;;8.30;99.90;;;;;;5046073;28;20223;-82
2024/01/18 01:31:19;;;;;;;11.43;10.83;;;8.40;99.90;;;;;;5048562;28;20659;-79
2024/01/18 01:33:46;;;;;;;11.50;10.90;;;8.40;99.90;;;;;;5037874;28;20248;-79
2024/01/18 01:36:13;;;;;;;11.30;10.70;;;8.40;99.90;;;;;;5042596;28;20241;-80
2024/01/18 01:38:40;;;;;;;11.50;10.90;;;8.50;99.90;;;;;;5044881;28;20303;-79
2024/01/18 01:41:07;;;;;;;11.40;10.80;;;8.50;99.90;;;;;;5036931;28;20257;-79
2024/01/18 01:43:34;;;;;;;11.10;10.50;;;8.50;99.90;;;;;;5044452;28;20200;-79
2024/01/18 01:46:03;;;;;;;11.37;10.77;;;8.50;99.90;;;;;;5034039;28;20727;-80
2024/01/18 01:48:30;;;;;;;11.27;10.67;;;8.40;99.90;;;;;;5035879;28;20219;-79
2024/01/18 01:50:56;;;;;;;11.50;10.90;;;8.40;99.90;;;;;;5038539;28;20235;-80
2024/01/18 01:53:23;;;;;;;11.33;10.73;;;8.30;99.90;;;;;;5044588;28;20195;-79
2024/01/18 01:55:50;;;;;;;11.10;10.50;;;8.30;99.90;;;;;;5049302;28;20225;-79
2024/01/18 01:58:18;;;;;;;11.50;10.77;;;8.20;99.90;;;;;;5040288;28;20257;-79
2024/01/18 02:00:45;;;;;;;11.27;10.60;;;8.20;99.90;;;;;;5049632;28;20253;-79
2024/01/18 02:03:14;;;;;;;11.60;10.90;;;8.10;99.90;;;;;;5040574;28;20187;-79
2024/01/18 02:05:40;;;;;;;11.70;11.10;;;8.00;99.90;;;;;;5045082;28;20207;-80
2024/01/18 02:08:07;;;;;;;11.40;10.80;;;8.00;99.90;;;;;;5049425;28;20207;-80
2024/01/18 02:10:34;;;;;;;11.60;11.00;;;8.00;99.90;;;;;;5045598;28;20258;-79
2024/01/18 02:13:02;;;;;;;11.30;10.70;;;8.00;99.90;;;;;;5040776;28;20200;-79
2024/01/18 02:15:29;;;;;;;11.40;10.80;;;8.00;99.90;;;;;;5036650;28;20223;-79
2024/01/18 02:17:56;;;;;;;11.60;10.80;;;8.00;99.90;;;;;;5045297;28;20250;-80
2024/01/18 02:20:25;;;;;;;11.30;10.60;;;8.00;99.90;;;;;;5043613;28;20253;-79
2024/01/18 02:22:52;;;;;;;11.50;10.90;;;8.10;99.90;;;;;;5042302;28;20204;-79
2024/01/18 02:25:22;;;;;;;11.47;10.87;;;8.10;99.90;;;;;;5045959;28;20195;-79
2024/01/18 02:27:48;;;;;;;11.20;10.60;;;8.10;99.90;;;;;;5039257;28;20219;-79
2024/01/18 02:30:15;;;;;;;11.07;10.47;;;8.20;99.90;;;;;;5040557;28;20196;-80
2024/01/18 02:32:42;;;;;;;11.47;10.87;;;8.20;99.90;;;;;;5045343;28;20708;-79
2024/01/18 02:35:09;;;;;;;11.33;10.73;;;8.20;99.90;;;;;;5048024;28;20227;-79
2024/01/18 02:37:36;;;;;;;11.37;10.77;;;8.20;99.90;;;;;;5050293;28;20215;-80
2024/01/18 02:40:03;;;;;;;10.90;10.30;;;8.20;99.90;;;;;;5043367;28;20200;-79
2024/01/18 02:42:32;;;;;;;11.60;10.90;;;8.20;99.90;;;;;;5047599;28;20670;-80
2024/01/18 02:44:59;;;;;;;11.30;10.70;;;8.20;99.90;;;;;;5035682;28;20192;-79
2024/01/18 02:47:26;;;;;;;11.53;10.93;;;8.30;99.90;;;;;;5047989;28;20246;-80
2024/01/18 02:49:52;;;;;;;11.20;10.60;;;8.40;99.90;;;;;;5048777;28;20649;-80
2024/01/18 02:52:19;;;;;;;11.23;10.63;;;8.40;99.90;;;;;;5034781;28;20215;-80
2024/01/18 02:54:46;;;;;;;11.97;11.37;;;8.40;99.90;;;;;;5045027;28;20215;-79
2024/01/18 02:57:13;;;;;;;12.17;11.40;;;8.50;99.90;;;;;;5038312;28;20212;-80
2024/01/18 02:59:41;;;;;;;11.83;11.23;;;8.60;99.90;;;;;;5045780;28;20417;-80
2024/01/18 03:02:08;;;;;;;11.93;11.30;;;8.60;99.90;;;;;;5047635;28;20689;-80
2024/01/18 03:04:35;;;;;;;12.40;11.70;;;8.60;99.90;;;;;;5051130;28;20566;-79
2024/01/18 03:07:02;;;;;;;12.33;11.63;;;8.70;99.90;;;;;;5035701;28;20642;-80
2024/01/18 03:09:28;;;;;;;12.00;11.30;;;8.70;99.90;;;;;;5039504;28;20246;-79
2024/01/18 03:11:55;;;;;;;12.10;11.40;;;8.70;99.90;;;;;;5042670;28;20203;-79
2024/01/18 03:14:22;;;;;;;12.23;11.53;;;8.60;99.90;;;;;;5047248;28;20624;-79
2024/01/18 03:16:50;;;;;;;12.73;12.13;;;8.60;99.90;;;;;;5035880;28;20214;-79
2024/01/18 03:19:17;;;;;;;12.30;11.60;;;8.60;99.90;;;;;;5049012;28;20198;-79
2024/01/18 03:21:44;;;;;;;12.10;11.50;;;8.60;99.90;;;;;;5036684;28;20281;-79
2024/01/18 03:24:11;;;;;;;11.97;11.27;;;8.60;99.90;;;;;;5043019;28;20196;-80
2024/01/18 03:26:38;;;;;;;12.33;11.60;;;8.60;99.90;;;;;;5042853;28;20199;-79
2024/01/18 03:29:05;;;;;;;12.10;11.40;;;8.60;99.90;;;;;;5046309;28;20215;-79
2024/01/18 03:31:32;;;;;;;12.77;11.90;;;8.60;99.90;;;;;;5043783;28;20200;-79
2024/01/18 03:34:00;;;;;;;12.80;12.00;;;8.60;99.90;;;;;;5045183;28;20207;-79
2024/01/18 03:36:27;;;;;;;12.60;11.80;;;8.70;99.90;;;;;;5040994;28;20246;-79
2024/01/18 03:38:53;;;;;;;13.57;12.77;;;8.70;99.90;;;;;;5045897;28;20231;-79
2024/01/18 03:41:20;;;;;;;12.83;12.13;;;8.70;99.90;;;;;;5045406;28;20211;-83
2024/01/18 03:43:47;;;;;;;13.10;12.40;;;8.80;99.90;;;;;;5042571;28;20231;-78
2024/01/18 03:46:14;;;;;;;13.40;12.70;;;8.80;99.90;;;;;;5045624;28;20193;-79
2024/01/18 03:48:41;;;;;;;11.00;10.40;;;8.90;99.90;;;;;;5034669;28;20234;-80
2024/01/18 03:51:09;;;;;;;10.93;10.33;;;8.80;99.90;;;;;;5037352;28;20286;-79
2024/01/18 03:53:37;;;;;;;10.60;10.00;;;8.90;99.90;;;;;;5032001;28;20204;-82
2024/01/18 03:56:04;;;;;;;11.53;10.90;;;8.90;99.90;;;;;;5034238;28;20211;-83
2024/01/18 03:58:31;;;;;;;11.43;10.73;;;8.90;99.90;;;;;;5031073;28;20216;-82
2024/01/18 04:00:58;;;;;;;11.60;10.90;;;9.00;99.90;;;;;;5034492;28;20666;-83
2024/01/18 04:03:25;;;;;;;11.33;10.63;;;9.00;99.90;;;;;;5034867;28;20192;-83
2024/01/18 04:05:52;;;;;;;10.77;10.17;;;9.00;99.90;;;;;;5033849;28;20204;-83
2024/01/18 04:08:20;;;;;;;10.90;10.30;;;9.00;99.90;;;;;;5033492;28;20642;-82
2024/01/18 04:10:47;;;;;;;11.30;10.63;;;9.00;99.90;;;;;;5033011;28;20204;-83
2024/01/18 04:13:14;;;;;;;11.33;10.73;;;9.10;99.90;;;;;;5027645;28;20200;-82
2024/01/18 04:15:41;;;;;;;11.13;10.53;;;9.00;99.90;;;;;;5027297;28;20765;-80
2024/01/18 04:18:09;;;;;;;11.37;10.77;;;9.10;99.90;;;;;;5028367;28;20292;-82
2024/01/18 04:20:36;;;;;;;11.60;10.90;;;9.10;99.90;;;;;;5033834;28;20658;-81
2024/01/18 04:23:02;;;;;;;11.17;10.47;;;9.10;99.90;;;;;;5034855;28;20196;-81
2024/01/18 04:25:30;;;;;;;11.40;10.80;;;9.10;99.90;;;;;;5041537;28;20658;-82
2024/01/18 04:27:57;;;;;;;11.77;10.97;;;9.10;99.90;;;;;;5040958;28;20281;-82
2024/01/18 04:30:24;;;;;;;12.03;11.33;;;9.00;99.90;;;;;;5044410;28;20192;-83
2024/01/18 04:32:52;;;;;;;12.00;11.20;;;9.00;99.90;;;;;;5050189;28;20206;-82
2024/01/18 04:35:19;;;;;;;12.20;11.50;;;9.00;99.90;;;;;;5036239;28;20211;-82
2024/01/18 04:37:46;;;;;;;11.50;10.90;;;9.00;99.90;;;;;;5042524;28;20235;-82
2024/01/18 04:40:13;;;;;;;11.37;10.67;;;8.90;99.90;;;;;;5041959;28;20199;-82
2024/01/18 04:42:42;;;;;;;12.20;11.50;;;8.90;99.90;;;;;;5041534;28;20227;-81
2024/01/18 04:45:09;;;;;;;12.37;11.67;;;8.90;99.90;;;;;;5043066;28;20720;-82
2024/01/18 04:47:39;;;;;;;11.90;11.30;;;8.80;99.90;;;;;;5044514;28;20220;-81
2024/01/18 04:50:09;;;;;;;11.80;11.20;;;8.80;99.90;;;;;;5021891;28;20195;-79
2024/01/18 04:52:35;;;;;;;11.30;10.70;;;8.80;99.90;;;;;;5037969;28;20207;-79
2024/01/18 04:55:04;;;;;;;11.40;10.80;;;8.80;99.90;;;;;;5041717;28;20212;-79
2024/01/18 04:57:31;;;;;;;11.17;10.57;;;8.80;99.90;;;;;;5045330;28;20561;-79
2024/01/18 04:59:59;;;;;;;11.40;10.80;;;8.70;99.90;;;;;;5039510;28;20670;-79
2024/01/18 05:02:26;;;;;;;11.30;10.70;;;8.70;99.90;;;;;;5049264;28;20578;-79
2024/01/18 05:04:53;;;;;;;11.90;11.20;;;8.60;99.90;;;;;;5037510;28;20694;-79
2024/01/18 05:07:22;;;;;;;12.10;11.30;;;8.60;99.90;;;;;;5031391;28;20216;-78
2024/01/18 05:09:49;;;;;;;11.93;11.33;;;8.60;99.90;;;;;;5037314;28;20201;-78
2024/01/18 05:12:15;;;;;;;12.17;11.53;;;8.60;99.90;;;;;;5039028;28;20287;-78
2024/01/18 05:14:42;;;;;;;12.00;11.40;;;8.50;99.90;;;;;;5043355;28;20674;-78
2024/01/18 05:17:12;;;;;;;12.70;11.90;;;8.50;99.90;;;;;;5040026;28;20227;-79
2024/01/18 05:19:39;;;;;;;12.50;11.80;;;8.40;99.90;;;;;;5046964;28;20195;-79
2024/01/18 05:22:07;;;;;;;12.20;11.60;;;8.40;99.90;;;;;;5042333;28;20211;-78
2024/01/18 05:24:34;;;;;;;12.30;11.60;;;8.40;99.90;;;;;;5041507;28;20246;-78
2024/01/18 05:27:01;;;;;;;12.20;11.60;;;8.40;99.90;;;;;;5044878;28;20627;-78
2024/01/18 05:29:27;;;;;;;12.40;11.70;;;8.30;99.90;;;;;;5045812;28;20727;-78
2024/01/18 05:31:54;;;;;;;12.40;11.70;;;8.30;99.90;;;;;;5042650;28;20208;-77
2024/01/18 05:34:22;;;;;;;12.97;12.17;;;8.40;99.90;;;;;;5038449;28;20199;-79
2024/01/18 05:36:49;;;;;;;12.80;12.10;;;8.30;99.90;;;;;;5038228;28;20300;-78
2024/01/18 05:39:16;;;;;;;12.50;11.80;;;8.30;99.90;;;;;;5038262;28;20281;-78
2024/01/18 05:41:43;;;;;;;12.80;12.00;;;8.20;99.90;;;;;;5038203;28;20769;-79
2024/01/18 05:44:10;;;;;;;12.90;12.20;;;8.20;99.90;;;;;;5042228;28;20196;-78
2024/01/18 05:46:37;;;;;;;12.43;11.73;;;8.10;99.90;;;;;;5038952;28;20195;-79
2024/01/18 05:49:04;;;;;;;12.37;11.67;;;8.10;99.90;;;;;;5042414;28;20268;-78
2024/01/18 05:51:32;;;;;;;12.30;11.60;;;8.10;99.90;;;;;;5044873;28;20226;-78
2024/01/18 05:53:59;;;;;;;12.73;12.03;;;8.10;99.90;;;;;;5048982;28;20195;-79
2024/01/18 05:56:26;;;;;;;12.80;12.10;;;8.00;99.90;;;;;;5030531;28;20222;-79
2024/01/18 05:58:53;;;;;;;12.80;12.10;;;8.00;99.90;;;;;;5046716;28;20214;-77
2024/01/18 06:01:21;;;;;;;12.90;12.20;;;8.00;99.90;;;;;;5042729;28;20283;-77
2024/01/18 06:03:48;;;;;;;13.17;12.47;;;7.90;99.90;;;;;;5030407;28;20200;-77
2024/01/18 06:06:16;;;;;;;12.87;12.17;;;8.00;99.90;;;;;;5045486;28;20274;-77
2024/01/18 06:08:44;;;;;;;13.23;12.50;;;7.90;99.90;;;;;;5045836;28;20277;-79
2024/01/18 06:11:10;;;;;;;12.83;12.13;;;7.90;99.90;;;;;;5043764;28;20283;-78
2024/01/18 06:13:39;;;;;;;12.70;12.00;;;7.90;99.90;;;;;;5039126;28;20204;-79
2024/01/18 06:16:09;;;;;;;12.80;12.10;;;7.90;99.90;;;;;;5045248;28;20276;-79
2024/01/18 06:18:37;;;;;;;12.37;11.67;;;7.90;99.90;;;;;;5038808;28;20234;-79
2024/01/18 06:21:04;;;;;;;12.90;12.20;;;7.90;99.90;;;;;;5039210;28;20565;-79
2024/01/18 06:23:31;;;;;;;13.30;12.50;;;8.00;99.90;;;;;;5041825;28;20200;-79
2024/01/18 06:25:59;;;;;;;12.90;12.20;;;8.00;99.90;;;;;;5031421;28;20253;-77
2024/01/18 06:28:26;;;;;;;13.07;12.37;;;8.00;99.90;;;;;;5032877;28;20810;-78
2024/01/18 06:30:53;;;;;;;13.13;12.43;;;7.90;99.90;;;;;;5045951;28;20198;-77
2024/01/18 06:33:20;;;;;;;12.97;12.27;;;8.00;99.90;;;;;;5041967;28;20192;-78
2024/01/18 06:35:46;;;;;;;13.00;12.30;;;8.00;99.90;;;;;;5047139;28;20764;-79
2024/01/18 06:38:14;;;;;;;13.07;12.37;;;8.00;99.90;;;;;;5050726;28;20211;-79
2024/01/18 06:40:42;;;;;;;13.00;12.30;;;7.90;99.90;;;;;;5044232;28;20231;-79
2024/01/18 06:43:10;;;;;;;13.27;12.53;;;7.90;99.90;;;;;;5045459;28;20294;-79
2024/01/18 06:45:37;;;;;;;13.00;12.30;;;7.90;99.90;;;;;;5040650;28;20183;-79
2024/01/18 06:48:04;;;;;;;13.07;12.37;;;7.90;99.90;;;;;;5040809;28;20709;-79
2024/01/18 06:50:31;;;;;;;13.23;12.43;;;7.90;99.90;;;;;;5048087;28;20222;-78
2024/01/18 06:52:59;;;;;;;13.30;12.50;;;7.80;99.90;;;;;;5047713;28;20237;-79
2024/01/18 06:55:26;;;;;;;13.57;12.73;;;7.80;99.90;;;;;;5045265;28;20199;-78
2024/01/18 06:57:53;;;;;;;14.00;13.20;;;7.70;99.90;;;;;;5049491;28;20229;-80
2024/01/18 07:00:23;;;;;;;14.23;13.33;;;7.70;99.90;;;;;;5045335;28;20218;-80
2024/01/18 07:02:50;;;;;;;14.53;13.63;;;7.70;99.90;;;;;;5049008;28;20678;-79
2024/01/18 07:05:17;;;;;;;14.13;13.33;;;7.60;99.90;;;;;;5046672;28;20217;-81
2024/01/18 07:07:44;;;;;;;13.63;12.83;;;7.60;99.90;;;;;;5051857;28;20273;-80
2024/01/18 07:10:11;;;;;;;13.37;12.67;;;7.60;99.90;;;;;;5034856;28;20704;-80
2024/01/18 07:12:38;;;;;;;13.73;12.93;;;7.60;99.90;;;;;;5039163;28;20278;-79
2024/01/18 07:15:07;;;;;;;14.63;13.70;;;7.60;99.90;;;;;;5048087;28;20195;-80
2024/01/18 07:17:35;;;;;;;14.00;13.20;;;7.60;99.90;;;;;;5037572;28;20237;-80
2024/01/18 07:20:02;;;;;;;14.57;13.57;;;7.60;99.90;;;;;;5049131;28;20203;-80
2024/01/18 07:22:29;;;;;;;14.00;13.20;;;7.60;99.90;;;;;;5034166;28;20262;-79
2024/01/18 07:24:56;;;;;;;14.40;13.50;;;7.70;99.90;;;;;;5038259;28;20195;-80
2024/01/18 07:27:22;;;;;;;14.10;13.30;;;7.70;99.90;;;;;;5046992;28;20643;-80
2024/01/18 07:29:50;;;;;;;13.80;13.00;;;7.80;99.90;;;;;;5037075;28;20740;-78
2024/01/18 07:32:16;;;;;;;13.67;12.97;;;7.90;99.90;;;;;;5039289;28;20191;-79
2024/01/18 07:34:45;;;;;;;13.50;12.70;;;7.90;99.90;;;;;;5038600;28;20231;-79
2024/01/18 07:37:13;;;;;;;13.43;12.70;;;7.90;99.90;;;;;;5046547;28;20718;-79
2024/01/18 07:39:41;;;;;;;13.23;12.53;;;7.90;99.90;;;;;;5047236;28;20248;-78
2024/01/18 07:42:08;;;;;;;13.00;12.20;;;7.90;99.90;;;;;;5048250;28;20279;-80
2024/01/18 07:44:35;;;;;;;13.00;12.30;;;7.90;99.90;;;;;;5040976;28;20666;-79
2024/01/18 07:47:02;;;;;;;12.97;12.13;;;7.90;99.90;;;;;;5035476;28;20211;-78
2024/01/18 07:49:28;;;;;;;12.67;11.97;;;7.90;99.90;;;;;;5047751;28;20222;-80
2024/01/18 07:51:57;;;;;;;13.10;12.30;;;7.90;99.90;;;;;;5044098;28;20210;-79
2024/01/18 07:54:23;;;;;;;13.07;12.30;;;8.00;99.90;;;;;;5040302;28;20203;-80
2024/01/18 07:56:50;;;;;;;13.70;12.80;;;8.00;99.90;;;;;;5043795;28;20258;-80
2024/01/18 07:59:17;;;;;;;12.60;11.90;;;8.10;99.90;;;;;;5048063;28;20235;-79
2024/01/18 08:01:45;;;;;;;12.70;11.90;;;8.20;99.90;;;;;;5043404;28;20234;-80
2024/01/18 08:04:12;;;;;;;11.87;11.17;;;8.20;99.90;;;;;;5041067;28;20208;-79
2024/01/18 08:06:39;;;;;;;11.90;11.20;;;8.30;99.90;;;;;;5043991;28;20198;-80
2024/01/18 08:09:07;;;;;;;11.70;11.10;;;8.30;99.90;;;;;;5041830;28;20254;-79
2024/01/18 08:11:34;;;;;;;11.57;10.97;;;8.40;99.90;;;;;;5040752;28;20260;-79
2024/01/18 08:14:00;;;;;;;11.10;10.50;;;8.40;99.90;;;;;;5041676;28;20203;-80
2024/01/18 08:16:27;;;;;;;11.40;10.80;;;8.50;99.90;;;;;;5045623;28;20752;-80
2024/01/18 08:18:55;;;;;;;11.10;10.50;;;8.60;99.90;;;;;;5045530;28;20700;-80
2024/01/18 08:21:23;;;;;;;10.70;10.10;;;8.70;99.90;;;;;;5038935;28;20191;-80
2024/01/18 08:23:50;;;;;;;10.40;9.90;;;8.80;99.90;;;;;;5046512;28;20191;-81
2024/01/18 08:26:20;;;;;;;11.13;10.53;;;8.90;99.90;;;;;;5043420;28;20226;-79
2024/01/18 08:28:47;;;;;;;11.10;10.50;;;9.00;99.90;;;;;;5047089;28;20261;-80
2024/01/18 08:31:14;;;;;;;11.10;10.50;;;9.10;99.90;;;;;;5040631;28;20226;-80
2024/01/18 08:33:41;;;;;;;10.70;10.10;;;9.10;99.90;;;;;;5040589;28;20192;-79
2024/01/18 08:36:09;;;;;;;11.00;10.40;;;9.20;99.90;;;;;;5019134;28;20225;-79
2024/01/18 08:38:36;;;;;;;14.20;13.30;;;9.30;99.90;;;;;;5045400;28;20733;-79
2024/01/18 08:41:03;;;;;;;12.03;11.40;;;9.30;99.90;;;;;;5033607;28;20203;-79
2024/01/18 08:43:31;;;;;;;11.10;10.50;;;9.30;99.90;;;;;;5050666;28;20619;-79
2024/01/18 08:45:59;;;;;;;11.00;10.40;;;9.30;99.90;;;;;;5038901;28;20200;-79
2024/01/18 08:48:26;;;;;;;10.97;10.37;;;9.30;99.90;;;;;;5046322;28;20220;-80
2024/01/18 08:50:53;;;;;;;11.30;10.70;;;9.30;99.90;;;;;;5037302;28;20209;-79
2024/01/18 08:53:20;;;;;;;11.23;10.53;;;9.30;99.90;;;;;;5042617;28;20223;-84
2024/01/18 08:55:46;;;;;;;11.27;10.67;;;9.30;99.90;;;;;;5043377;28;20204;-84
2024/01/18 08:58:13;;;;;;;10.70;10.20;;;9.30;99.90;;;;;;5042739;28;20219;-84
2024/01/18 09:00:42;;;;;;;12.73;12.13;;;9.40;99.90;;;;;;5043195;28;20274;-83
2024/01/18 09:03:08;;;;;;;11.90;11.30;;;9.40;99.90;;;;;;5040559;28;20263;-84
2024/01/18 09:05:35;;;;;;;12.00;11.40;;;9.40;99.90;;;;;;5044378;28;20192;-83
2024/01/18 09:08:02;;;;;;;12.40;11.80;;;9.50;99.90;;;;;;5041171;28;20220;-84
2024/01/18 09:10:29;;;;;;;12.60;12.00;;;9.50;99.90;;;;;;5032275;28;20197;-83
2024/01/18 09:12:56;;;;;;;10.10;9.60;;;9.50;99.90;;;;;;5044638;28;20275;-82
2024/01/18 09:15:24;;;;;;;10.47;9.97;;;9.50;99.90;;;;;;5042590;28;20639;-81
2024/01/18 09:17:53;;;;;;;11.00;10.40;;;9.50;99.90;;;;;;5044339;28;20220;-81
2024/01/18 09:20:20;;;;;;;10.77;10.17;;;9.50;99.90;;;;;;5047720;28;20231;-81
2024/01/18 09:22:46;;;;;;;9.73;9.23;;;9.50;99.90;;;;;;5030417;28;20231;-81
2024/01/18 09:25:13;;;;;;;10.00;9.50;;;9.50;99.90;;;;;;5038769;28;20205;-81
2024/01/18 09:27:40;;;;;;;9.90;9.40;;;9.50;99.90;;;;;;5042366;28;20223;-80
2024/01/18 09:30:09;;;;;;;10.60;10.00;;;9.50;99.90;;;;;;5043341;28;20200;-80
2024/01/18 09:32:36;;;;;;;11.57;10.97;;;9.50;99.90;;;;;;5044716;28;20207;-81
2024/01/18 09:35:05;;;;;;;12.00;11.40;;;9.60;99.90;;;;;;5039258;28;20643;-80
2024/01/18 09:37:32;;;;;;;13.17;12.47;;;9.70;99.90;;;;;;5032480;28;20313;-81
2024/01/18 09:39:59;;;;;;;13.57;12.80;;;9.70;99.90;;;;;;5044955;28;20204;-80
2024/01/18 09:42:32;;;;;;;13.63;12.93;;;9.80;99.90;;;;;;5044112;28;20716;-81
2024/01/18 09:45:03;;;;;;;13.53;12.83;;;9.90;99.90;;;;;;5043494;28;20272;-81
2024/01/18 09:47:30;;;;;;;13.20;12.50;;;10.00;99.90;;;;;;5023871;28;20232;-80
2024/01/18 09:49:59;;;;;;;13.57;12.87;;;10.20;99.90;;;;;;5051494;28;20261;-81
2024/01/18 09:52:27;;;;;;;13.00;12.30;;;10.30;99.90;;;;;;5045984;28;20262;-80
2024/01/18 09:54:54;;;;;;;13.67;12.97;;;10.40;99.90;;;;;;5041317;28;20202;-81
2024/01/18 09:57:25;;;;;;;13.80;13.00;;;10.50;99.90;;;;;;5040705;28;20253;-81
2024/01/18 09:59:58;;;;;;;13.50;12.80;;;10.50;99.90;;;;;;5028474;28;20626;-80
2024/01/18 10:02:26;;;;;;;13.07;12.37;;;10.50;99.90;;;;;;5029610;28;20736;-81
2024/01/18 10:04:54;;;;;;;14.70;13.80;;;10.40;99.90;;;;;;5037422;28;20203;-81
2024/01/18 10:07:21;;;;;;;14.37;13.57;;;10.10;99.90;;;;;;5042787;28;20749;-80
2024/01/18 10:09:49;;;;;;;15.13;14.00;;;9.30;99.90;;;;;;5032762;28;20197;-80
2024/01/18 10:12:16;;;;;;;14.10;13.30;;;8.50;99.90;;;;;;5037730;28;20263;-81
2024/01/18 10:14:45;;;;;;;13.70;13.00;;;7.70;99.90;;;;;;5042200;28;20218;-80
2024/01/18 10:17:21;;;;;;;14.30;13.50;;;7.00;99.90;;;;;;5036932;28;20219;-81
2024/01/18 10:19:50;;;;;;;14.10;13.30;;;6.50;99.90;;;;;;5041671;28;20202;-81
2024/01/18 10:22:17;;;;;;;13.97;13.20;;;6.20;99.90;;;;;;5042047;28;20233;-80
2024/01/18 10:24:44;;;;;;;14.23;13.43;;;5.80;99.90;;;;;;5043079;28;20253;-80
2024/01/18 10:27:13;;;;;;;14.60;13.90;;;5.50;99.90;;;;;;5043102;28;20231;-80
2024/01/18 10:29:40;;;;;;;14.30;13.60;;;5.10;99.90;;;;;;5046283;28;20207;-80
2024/01/18 10:32:07;;;;;;;14.73;13.93;;;4.90;99.90;;;;;;5040047;28;20289;-80
2024/01/18 10:34:35;;;;;;;15.10;14.30;;;4.90;99.90;;;;;;5043213;28;20259;-81
2024/01/18 10:37:02;;;;;;;14.43;13.73;;;4.60;99.90;;;;;;5042355;28;20213;-80
2024/01/18 10:39:39;;;;;;;14.20;13.40;;;4.40;99.90;;;;;;5049095;28;20254;-80
2024/01/18 10:42:07;;;;;;;14.10;13.40;;;4.30;99.90;;;;;;5036849;28;20202;-80
2024/01/18 10:44:39;;;;;;;14.40;13.70;;;4.30;99.90;;;;;;5045732;28;20674;-80
2024/01/18 10:47:09;;;;;;;14.50;13.80;;;4.10;99.90;;;;;;5036840;28;20199;-80
2024/01/18 10:49:40;;;;;;;13.30;12.60;;;4.00;99.90;;;;;;5033486;28;20204;-85
2024/01/18 10:52:07;;;;;;;14.00;13.30;;;3.70;99.90;;;;;;5034156;28;20201;-80
2024/01/18 10:54:34;;;;;;;14.13;13.37;;;3.60;99.90;;;;;;5044261;28;20232;-79
2024/01/18 10:57:01;;;;;;;15.40;14.60;;;3.60;99.90;;;;;;5045106;28;20303;-80
2024/01/18 10:59:29;;;;;;;17.33;16.43;;;3.40;99.90;;;;;;5042689;28;20662;-80
2024/01/18 11:01:59;;;;;;;17.50;16.60;;;3.50;99.90;;;;;;5036631;28;20259;-79
2024/01/18 11:04:26;;;;;;;18.00;17.10;;;3.40;99.90;;;;;;5033972;28;20333;-80
2024/01/18 11:06:55;;;;;;;18.13;17.23;;;3.30;99.90;;;;;;5048115;28;20218;-81
2024/01/18 11:09:22;;;;;;;17.90;17.00;;;3.30;99.90;;;;;;5041235;28;20734;-80
2024/01/18 11:11:50;;;;;;;17.37;16.40;;;3.20;99.90;;;;;;5045605;28;20256;-80
2024/01/18 11:14:17;;;;;;;16.97;16.07;;;3.30;99.90;;;;;;5043034;28;20619;-79
2024/01/18 11:16:44;;;;;;;17.60;16.70;;;3.30;99.90;;;;;;5045869;28;20699;-81
2024/01/18 11:19:12;;;;;;;17.47;16.57;;;3.20;99.90;;;;;;5045706;28;20262;-81
2024/01/18 11:21:40;;;;;;;16.83;15.97;;;3.20;99.90;;;;;;5036604;28;20241;-81
2024/01/18 11:24:08;;;;;;;16.90;16.07;;;3.20;99.90;;;;;;5049108;28;20268;-81
2024/01/18 11:26:35;;;;;;;17.17;16.27;;;3.20;99.90;;;;;;5044303;28;20203;-84
2024/01/18 11:29:17;;;;;;;17.30;16.40;;;3.20;99.90;;;;;;5047709;28;20541;-84
2024/01/18 11:31:50;;;;;;;17.10;16.20;;;3.10;99.90;;;;;;5044997;28;20196;-83
2024/01/18 11:34:30;;;;;;;17.40;16.50;;;3.00;99.90;;;;;;5040691;28;20196;-82
2024/01/18 11:37:12;;;;;;;17.00;16.10;;;2.80;99.90;;;;;;5044935;28;20188;-76
2024/01/18 11:39:54;;;;;;;17.27;16.37;;;2.80;99.90;;;;;;5044012;28;20203;-80
2024/01/18 11:42:24;;;;;;;16.50;15.70;;;2.80;99.90;;;;;;5037556;28;20204;-80
2024/01/18 11:44:55;;;;;;;16.73;15.83;;;2.80;99.90;;;;;;5037102;28;20219;-79
2024/01/18 11:47:23;;;;;;;15.90;15.10;;;2.80;99.90;;;;;;5041156;28;20219;-79
2024/01/18 11:49:52;;;;;;;16.43;15.60;;;2.80;99.90;;;;;;5041225;28;20321;-79
2024/01/18 11:52:22;;;;;;;16.27;15.47;;;2.80;99.90;;;;;;5046925;28;20682;-79
2024/01/18 11:54:53;;;;;;;16.77;15.87;;;2.80;99.90;;;;;;5036493;28;20227;-79
2024/01/18 11:57:20;;;;;;;17.10;16.20;;;2.80;99.90;;;;;;5046334;28;20226;-79
2024/01/18 11:59:47;;;;;;;17.50;16.60;;;2.80;99.90;;;;;;5034249;28;20262;-79
2024/01/18 12:02:21;;;;;;;17.40;16.50;;;2.70;99.90;;;;;;5031002;28;20686;-80
2024/01/18 12:04:48;;;;;;;14.73;13.97;;;2.80;99.90;;;;;;5034347;28;20191;-79
2024/01/18 12:07:17;;;;;;;17.00;16.10;;;2.70;99.90;;;;;;5044122;28;20211;-79
2024/01/18 12:09:45;;;;;;;16.60;15.80;;;2.70;99.90;;;;;;5044858;28;20230;-79
2024/01/18 12:12:12;;;;;;;16.30;15.40;;;2.70;99.90;;;;;;5038655;28;20238;-79
2024/01/18 12:14:44;;;;;;;16.63;15.73;;;2.60;99.90;;;;;;5040854;28;20565;-79
2024/01/18 12:17:12;;;;;;;15.90;15.10;;;2.70;99.90;;;;;;5043254;28;20235;-82
2024/01/18 12:19:40;;;;;;;16.03;15.23;;;2.70;99.90;;;;;;5039782;28;20330;-83
2024/01/18 12:22:08;;;;;;;15.13;14.33;;;2.70;99.90;;;;;;5042730;28;20666;-80
2024/01/18 12:24:36;;;;;;;16.80;15.90;;;2.60;99.90;;;;;;5045649;28;20320;-78
2024/01/18 12:27:05;;;;;;;15.50;14.70;;;2.70;99.90;;;;;;5036940;28;20282;-79
2024/01/18 12:29:33;;;;;;;16.50;15.60;;;2.70;99.90;;;;;;5041350;28;20196;-80
2024/01/18 12:32:00;;;;;;;16.33;15.53;;;2.70;99.90;;;;;;5040231;28;20238;-79
2024/01/18 12:34:29;;;;;;;16.47;15.57;;;2.70;99.90;;;;;;5036990;28;20200;-79
2024/01/18 12:36:56;;;;;;;16.00;15.20;;;2.70;99.90;;;;;;5042756;28;20474;-79